createdAt,value
2022-08-08T00:01:00.034Z,18.30
2022-08-08T00:03:32.945Z,18.20
2022-08-08T00:06:28.295Z,18.20
2022-08-08T00:09:16.974Z,18.20
2022-08-08T00:12:09.503Z,18.10
2022-08-08T00:14:59.387Z,17.90
2022-08-08T00:17:58.637Z,17.80
2022-08-08T00:20:57.114Z,17.80
2022-08-08T00:23:47.870Z,19.50
2022-08-08T00:26:44.484Z,17.80
2022-08-08T00:29:44.927Z,17.40
2022-08-08T00:32:35.313Z,17.80
2022-08-08T00:35:48.856Z,17.70
2022-08-08T00:38:44.248Z,18.30
2022-08-08T00:41:54.936Z,17.60
2022-08-08T00:44:57.861Z,17.60
2022-08-08T00:48:05.453Z,17.50
2022-08-08T00:51:09.735Z,17.50
2022-08-08T00:54:16.553Z,17.40
2022-08-08T00:57:29.646Z,17.30
2022-08-08T01:00:28.476Z,17.30
2022-08-08T01:04:02.319Z,17.20
2022-08-08T01:07:05.854Z,17.20
2022-08-08T01:10:00.421Z,17.10
2022-08-08T01:12:59.718Z,17.10
2022-08-08T01:15:56.689Z,17.00
2022-08-08T01:19:25.334Z,17.00
2022-08-08T01:22:13.298Z,16.90
2022-08-08T01:25:26.166Z,16.80
2022-08-08T01:28:06.692Z,16.80
2022-08-08T01:32:02.672Z,16.70
2022-08-08T01:34:30.884Z,16.60
2022-08-08T01:37:51.209Z,16.50
2022-08-08T01:40:54.145Z,16.50
2022-08-08T01:43:45.772Z,16.50
2022-08-08T01:46:52.496Z,16.40
2022-08-08T01:50:00.924Z,16.40
2022-08-08T01:53:06.666Z,16.40
2022-08-08T01:56:29.079Z,16.40
2022-08-08T01:59:19.170Z,16.40
2022-08-08T02:02:15.831Z,16.50
2022-08-08T02:05:06.454Z,16.60
2022-08-08T02:07:55.303Z,16.60
2022-08-08T02:10:45.917Z,16.50
2022-08-08T02:13:53.194Z,16.50
2022-08-08T02:17:03.548Z,16.50
2022-08-08T02:20:15.989Z,16.40
2022-08-08T02:23:22.781Z,16.40
2022-08-08T02:26:25.060Z,16.30
2022-08-08T02:29:24.164Z,16.30
2022-08-08T02:32:26.281Z,16.30
2022-08-08T02:35:10.871Z,16.10
2022-08-08T02:38:14.190Z,16.00
2022-08-08T02:41:57.894Z,16.00
2022-08-08T02:44:38.904Z,15.90
2022-08-08T02:47:41.724Z,15.90
2022-08-08T02:50:55.998Z,15.80
2022-08-08T02:54:11.459Z,15.80
2022-08-08T02:57:24.748Z,15.80
2022-08-08T03:00:27.034Z,15.70
2022-08-08T03:03:16.963Z,15.60
2022-08-08T03:06:34.272Z,15.70
2022-08-08T03:09:45.042Z,15.70
2022-08-08T03:12:35.980Z,15.70
2022-08-08T03:16:00.418Z,15.60
2022-08-08T03:18:34.772Z,15.50
2022-08-08T03:21:10.248Z,15.50
2022-08-08T03:23:59.791Z,15.40
2022-08-08T03:26:43.040Z,15.40
2022-08-08T03:29:26.915Z,15.40
2022-08-08T03:32:34.342Z,15.50
2022-08-08T03:35:09.739Z,15.50
2022-08-08T03:38:53.874Z,15.40
2022-08-08T03:40:34.698Z,15.40
2022-08-08T03:43:16.444Z,15.40
2022-08-08T03:46:05.821Z,15.30
2022-08-08T03:49:38.284Z,15.40
2022-08-08T03:51:51.752Z,15.30
2022-08-08T03:54:41.699Z,15.40
2022-08-08T03:58:34.408Z,15.40
2022-08-08T04:00:18.132Z,15.40
2022-08-08T04:02:59.385Z,15.40
2022-08-08T04:05:35.214Z,15.40
2022-08-08T04:08:17.283Z,15.40
2022-08-08T04:11:11.163Z,15.30
2022-08-08T04:14:03.896Z,15.20
2022-08-08T04:16:43.325Z,15.10
2022-08-08T04:19:25.153Z,15.00
2022-08-08T04:22:02.150Z,14.80
2022-08-08T04:24:41.533Z,14.80
2022-08-08T04:27:42.754Z,14.70
2022-08-08T04:30:17.107Z,14.80
2022-08-08T04:32:52.286Z,14.90
2022-08-08T04:35:29.439Z,15.00
2022-08-08T04:38:04.397Z,15.00
2022-08-08T04:40:40.860Z,15.20
2022-08-08T04:43:31.959Z,15.60
2022-08-08T04:46:21.929Z,16.00
2022-08-08T04:48:57.556Z,16.20
2022-08-08T04:51:54.999Z,16.90
2022-08-08T04:54:38.341Z,18.30
2022-08-08T04:57:12.534Z,20.20
2022-08-08T04:59:44.783Z,21.90
2022-08-08T05:02:20.182Z,23.00
2022-08-08T05:04:54.624Z,23.60
2022-08-08T05:07:38.146Z,24.20
2022-08-08T05:10:15.307Z,24.40
2022-08-08T05:13:00.003Z,24.50
2022-08-08T05:16:54.507Z,24.50
2022-08-08T05:18:27.639Z,24.60
2022-08-08T05:21:00.689Z,24.50
2022-08-08T05:23:41.176Z,24.10
2022-08-08T05:26:19.848Z,23.40
2022-08-08T05:28:57.493Z,23.10
2022-08-08T05:32:05.479Z,23.00
2022-08-08T05:34:36.287Z,22.50
2022-08-08T05:37:17.245Z,22.50
2022-08-08T05:39:54.654Z,22.60
2022-08-08T05:42:42.585Z,22.70
2022-08-08T05:45:25.362Z,22.60
2022-08-08T05:48:08.852Z,22.70
2022-08-08T05:50:41.986Z,22.60
2022-08-08T05:53:23.128Z,22.70
2022-08-08T05:56:15.003Z,23.00
2022-08-08T05:58:57.842Z,23.10
2022-08-08T06:01:56.547Z,22.70
2022-08-08T06:04:33.294Z,22.80
2022-08-08T06:07:09.924Z,22.80
2022-08-08T06:10:00.533Z,22.70
2022-08-08T06:12:36.941Z,22.50
2022-08-08T06:15:12.622Z,22.70
2022-08-08T06:18:18.586Z,22.90
2022-08-08T06:20:44.789Z,22.90
2022-08-08T06:23:53.396Z,22.70
2022-08-08T06:26:39.109Z,22.90
2022-08-08T06:29:26.417Z,23.10
2022-08-08T06:32:10.779Z,23.50
2022-08-08T06:35:11.983Z,23.50
2022-08-08T06:37:56.197Z,23.50
2022-08-08T06:40:36.636Z,23.30
2022-08-08T06:43:18.041Z,23.30
2022-08-08T06:45:58.687Z,23.10
2022-08-08T06:48:30.751Z,23.00
2022-08-08T06:51:08.434Z,23.00
2022-08-08T06:53:51.157Z,23.00
2022-08-08T06:56:31.336Z,22.90
2022-08-08T06:59:12.132Z,23.40
2022-08-08T07:02:28.070Z,23.40
2022-08-08T07:05:02.478Z,23.30
2022-08-08T07:08:13.508Z,23.40
2022-08-08T07:10:51.307Z,23.80
2022-08-08T07:13:59.914Z,23.90
2022-08-08T07:16:50.144Z,24.10
2022-08-08T07:19:49.333Z,24.20
2022-08-08T07:22:30.640Z,24.20
2022-08-08T07:25:06.513Z,24.20
2022-08-08T07:28:02.459Z,24.40
2022-08-08T07:30:42.581Z,24.40
2022-08-08T07:33:17.616Z,24.60
2022-08-08T07:35:54.526Z,24.80
2022-08-08T07:38:28.379Z,25.00
2022-08-08T07:41:08.903Z,25.20
2022-08-08T07:43:59.506Z,25.20
2022-08-08T07:46:31.966Z,25.00
2022-08-08T07:49:10.475Z,25.10
2022-08-08T07:51:44.843Z,25.10
2022-08-08T07:54:46.689Z,25.10
2022-08-08T07:57:28.548Z,25.00
2022-08-08T08:00:16.653Z,24.80
2022-08-08T08:03:20.348Z,24.80
2022-08-08T08:05:58.059Z,24.90
2022-08-08T08:08:52.181Z,25.00
2022-08-08T08:11:33.643Z,25.30
2022-08-08T08:14:11.994Z,25.40
2022-08-08T08:16:51.590Z,25.60
2022-08-08T08:19:32.013Z,25.50
2022-08-08T08:22:31.354Z,25.60
2022-08-08T08:25:08.245Z,25.70
2022-08-08T08:27:46.825Z,25.80
2022-08-08T08:30:19.173Z,25.80
2022-08-08T08:32:52.220Z,25.70
2022-08-08T08:35:29.825Z,25.60
2022-08-08T08:38:20.003Z,25.60
2022-08-08T08:41:03.249Z,25.80
2022-08-08T08:43:50.077Z,26.00
2022-08-08T08:46:25.929Z,26.20
2022-08-08T08:49:00.204Z,26.30
2022-08-08T08:51:38.821Z,26.40
2022-08-08T08:54:25.663Z,26.50
2022-08-08T08:56:59.589Z,26.70
2022-08-08T08:59:59.241Z,27.00
2022-08-08T09:02:30.461Z,27.20
2022-08-08T09:05:06.147Z,27.30
2022-08-08T09:07:52.419Z,27.20
2022-08-08T09:10:37.323Z,27.20
2022-08-08T09:13:10.676Z,27.20
2022-08-08T09:15:43.284Z,27.00
2022-08-08T09:18:18.239Z,27.10
2022-08-08T09:22:00.705Z,27.30
2022-08-08T09:23:43.392Z,27.30
2022-08-08T09:26:32.581Z,27.00
2022-08-08T09:29:24.662Z,26.60
2022-08-08T09:32:06.422Z,26.50
2022-08-08T09:34:51.419Z,26.80
2022-08-08T09:37:58.237Z,27.10
2022-08-08T09:40:41.675Z,27.40
2022-08-08T09:43:41.165Z,27.70
2022-08-08T09:46:25.693Z,27.90
2022-08-08T09:49:18.661Z,28.00
2022-08-08T09:52:06.428Z,27.90
2022-08-08T09:54:44.642Z,27.80
2022-08-08T09:57:46.446Z,28.00
2022-08-08T10:00:53.624Z,28.20
2022-08-08T10:03:27.697Z,28.20
2022-08-08T10:06:21.250Z,28.20
2022-08-08T10:09:01.373Z,28.10
2022-08-08T10:12:26.490Z,28.00
2022-08-08T10:14:38.708Z,28.10
2022-08-08T10:17:56.204Z,28.20
2022-08-08T10:20:04.269Z,28.50
2022-08-08T10:22:54.912Z,28.40
2022-08-08T10:25:28.549Z,28.30
2022-08-08T10:28:17.040Z,28.20
2022-08-08T10:31:01.294Z,28.20
2022-08-08T10:33:38.547Z,28.20
2022-08-08T10:36:30.783Z,28.30
2022-08-08T10:39:07.074Z,28.40
2022-08-08T10:41:59.055Z,28.40
2022-08-08T10:44:40.145Z,28.30
2022-08-08T10:47:21.242Z,28.40
2022-08-08T10:50:01.638Z,28.40
2022-08-08T10:52:41.729Z,28.40
2022-08-08T10:55:40.448Z,28.50
2022-08-08T10:58:11.728Z,28.60
2022-08-08T11:00:52.574Z,28.60
2022-08-08T11:04:00.702Z,28.40
2022-08-08T11:06:36.429Z,28.50
2022-08-08T11:09:19.650Z,28.60
2022-08-08T11:12:05.960Z,28.80
2022-08-08T11:15:00.543Z,28.80
2022-08-08T11:18:00.422Z,28.60
2022-08-08T11:20:28.206Z,28.30
2022-08-08T11:23:05.231Z,27.90
2022-08-08T11:25:52.511Z,27.50
2022-08-08T11:28:29.440Z,27.50
2022-08-08T11:31:04.654Z,27.70
2022-08-08T11:33:52.759Z,28.10
2022-08-08T11:36:33.282Z,28.20
2022-08-08T11:39:13.072Z,28.20
2022-08-08T11:41:47.784Z,28.30
2022-08-08T11:44:28.732Z,28.40
2022-08-08T11:47:01.069Z,28.30
2022-08-08T11:49:33.262Z,28.10
2022-08-08T11:52:06.889Z,27.90
2022-08-08T11:54:46.649Z,27.60
2022-08-08T11:57:18.513Z,27.60
2022-08-08T12:00:05.983Z,27.60
2022-08-08T12:02:54.836Z,27.60
2022-08-08T12:05:38.744Z,27.70
2022-08-08T12:08:11.335Z,27.90
2022-08-08T12:10:51.000Z,28.10
2022-08-08T12:13:37.682Z,28.30
2022-08-08T12:16:19.544Z,28.50
2022-08-08T12:18:55.534Z,28.60
2022-08-08T12:22:00.067Z,28.80
2022-08-08T12:24:27.650Z,28.70
2022-08-08T12:27:03.333Z,28.50
2022-08-08T12:29:41.914Z,28.20
2022-08-08T12:32:20.365Z,28.30
2022-08-08T12:35:01.275Z,28.50
2022-08-08T12:37:41.607Z,28.60
2022-08-08T12:40:22.939Z,28.50
2022-08-08T12:42:56.121Z,28.60
2022-08-08T12:45:59.426Z,28.60
2022-08-08T12:48:37.862Z,28.50
2022-08-08T12:51:19.593Z,28.20
2022-08-08T12:53:59.678Z,28.00
2022-08-08T12:56:38.647Z,28.00
2022-08-08T13:00:05.144Z,28.20
2022-08-08T13:02:51.185Z,28.30
2022-08-08T13:05:27.131Z,28.60
2022-08-08T13:08:17.344Z,28.70
2022-08-08T13:10:58.210Z,28.90
2022-08-08T13:13:36.970Z,28.90
2022-08-08T13:16:25.953Z,29.00
2022-08-08T13:19:05.454Z,29.10
2022-08-08T13:21:53.611Z,28.70
2022-08-08T13:24:48.402Z,29.10
2022-08-08T13:27:35.431Z,29.00
2022-08-08T13:30:08.486Z,28.90
2022-08-08T13:32:42.520Z,28.90
2022-08-08T13:35:29.158Z,29.00
2022-08-08T13:38:13.473Z,29.00
2022-08-08T13:40:45.967Z,29.00
2022-08-08T13:43:19.025Z,29.20
2022-08-08T13:45:52.845Z,29.40
2022-08-08T13:48:26.194Z,29.40
2022-08-08T13:51:33.591Z,29.50
2022-08-08T13:54:00.030Z,29.70
2022-08-08T13:56:59.578Z,29.70
2022-08-08T13:59:40.538Z,29.70
2022-08-08T14:02:21.784Z,29.70
2022-08-08T14:05:20.215Z,29.60
2022-08-08T14:07:59.602Z,29.70
2022-08-08T14:10:37.267Z,29.70
2022-08-08T14:13:30.596Z,29.50
2022-08-08T14:16:07.829Z,29.40
2022-08-08T14:19:10.639Z,29.50
2022-08-08T14:21:52.299Z,29.60
2022-08-08T14:24:32.884Z,29.70
2022-08-08T14:27:14.790Z,29.60
2022-08-08T14:29:57.303Z,29.50
2022-08-08T14:32:31.323Z,29.50
2022-08-08T14:35:08.274Z,29.60
2022-08-08T14:38:00.980Z,29.90
2022-08-08T14:40:40.466Z,30.00
2022-08-08T14:43:31.545Z,29.90
2022-08-08T14:46:15.771Z,29.70
2022-08-08T14:48:52.301Z,29.90
2022-08-08T14:51:52.073Z,29.90
2022-08-08T14:54:29.316Z,29.80
2022-08-08T14:57:04.027Z,29.80
2022-08-08T14:59:50.092Z,29.70
2022-08-08T15:02:31.101Z,29.80
2022-08-08T15:05:10.623Z,29.80
2022-08-08T15:07:43.586Z,29.70
2022-08-08T15:10:28.854Z,29.80
2022-08-08T15:13:00.865Z,29.90
2022-08-08T15:16:01.190Z,30.10
2022-08-08T15:18:29.774Z,30.00
2022-08-08T15:21:01.880Z,30.00
2022-08-08T15:23:34.822Z,29.80
2022-08-08T15:26:12.634Z,29.80
2022-08-08T15:28:45.206Z,29.90
2022-08-08T15:31:25.910Z,29.90
2022-08-08T15:34:18.357Z,29.90
2022-08-08T15:37:04.960Z,30.00
2022-08-08T15:39:39.666Z,30.00
2022-08-08T15:42:17.756Z,30.10
2022-08-08T15:45:03.619Z,30.10
2022-08-08T15:47:35.429Z,30.20
2022-08-08T15:50:16.765Z,30.10
2022-08-08T15:52:52.784Z,30.00
2022-08-08T15:55:24.585Z,29.90
2022-08-08T15:57:56.337Z,29.90
2022-08-08T16:00:28.625Z,29.80
2022-08-08T16:03:00.407Z,29.80
2022-08-08T16:05:35.561Z,29.90
2022-08-08T16:08:24.492Z,30.00
2022-08-08T16:13:09.457Z,30.00
2022-08-08T16:13:49.571Z,29.90
2022-08-08T16:16:25.373Z,29.90
2022-08-08T16:18:58.299Z,29.80
2022-08-08T16:21:33.228Z,29.90
2022-08-08T16:24:07.361Z,29.80
2022-08-08T16:26:42.574Z,29.80
2022-08-08T16:29:19.417Z,29.80
2022-08-08T16:32:13.525Z,29.70
2022-08-08T16:34:52.794Z,29.70
2022-08-08T16:37:27.732Z,29.70
2022-08-08T16:40:03.346Z,29.50
2022-08-08T16:42:38.818Z,29.50
2022-08-08T16:46:36.282Z,29.40
2022-08-08T16:48:04.093Z,29.30
2022-08-08T16:50:37.076Z,29.20
2022-08-08T16:55:02.070Z,29.20
2022-08-08T16:56:03.289Z,29.00
2022-08-08T16:58:37.052Z,29.00
2022-08-08T17:01:15.438Z,28.90
2022-08-08T17:04:00.182Z,28.90
2022-08-08T17:06:39.930Z,28.80
2022-08-08T17:09:16.064Z,28.80
2022-08-08T17:11:59.282Z,28.80
2022-08-08T17:14:35.258Z,28.70
2022-08-08T17:17:22.875Z,28.60
2022-08-08T17:20:00.045Z,28.40
2022-08-08T17:22:41.927Z,28.20
2022-08-08T17:25:14.189Z,28.10
2022-08-08T17:27:49.684Z,28.00
2022-08-08T17:30:29.071Z,28.00
2022-08-08T17:34:48.094Z,27.90
2022-08-08T17:36:10.852Z,27.80
2022-08-08T17:38:45.212Z,27.60
2022-08-08T17:41:17.021Z,27.50
2022-08-08T17:44:01.131Z,27.50
2022-08-08T17:46:38.894Z,27.30
2022-08-08T17:49:13.726Z,27.10
2022-08-08T17:51:51.715Z,27.00
2022-08-08T17:54:25.990Z,26.90
2022-08-08T17:57:01.257Z,26.80
2022-08-08T17:59:36.442Z,26.60
2022-08-08T18:02:21.530Z,26.50
2022-08-08T18:05:04.791Z,26.50
2022-08-08T18:08:02.422Z,26.50
2022-08-08T18:10:31.586Z,26.30
2022-08-08T18:13:04.191Z,26.20
2022-08-08T18:15:39.519Z,26.10
2022-08-08T18:18:28.424Z,26.00
2022-08-08T18:21:10.818Z,25.90
2022-08-08T18:23:56.126Z,25.90
2022-08-08T18:26:29.106Z,25.80
2022-08-08T18:29:01.661Z,25.70
2022-08-08T18:31:33.529Z,25.70
2022-08-08T18:34:25.005Z,25.60
2022-08-08T18:36:57.633Z,25.50
2022-08-08T18:39:29.440Z,25.40
2022-08-08T18:42:03.693Z,25.40
2022-08-08T18:44:36.345Z,25.30
2022-08-08T18:47:08.116Z,25.20
2022-08-08T18:49:57.533Z,25.20
2022-08-08T18:52:36.896Z,25.20
2022-08-08T18:55:11.188Z,25.10
2022-08-08T18:57:45.515Z,25.00
2022-08-08T19:00:21.147Z,24.90
2022-08-08T19:03:04.003Z,24.80
2022-08-08T19:05:45.230Z,24.70
2022-08-08T19:08:24.891Z,24.60
2022-08-08T19:11:01.813Z,24.60
2022-08-08T19:13:52.471Z,24.60
2022-08-08T19:16:32.183Z,24.50
2022-08-08T19:19:13.154Z,24.40
2022-08-08T19:21:49.296Z,24.40
2022-08-08T19:24:42.336Z,24.20
2022-08-08T19:27:14.947Z,24.20
2022-08-08T19:29:46.861Z,24.10
2022-08-08T19:32:22.959Z,24.00
2022-08-08T19:34:55.270Z,23.10
2022-08-08T19:37:42.574Z,23.80
2022-08-08T19:40:22.082Z,23.60
2022-08-08T19:43:03.013Z,23.60
2022-08-08T19:45:58.506Z,23.40
2022-08-08T19:48:33.177Z,23.40
2022-08-08T19:51:05.026Z,22.40
2022-08-08T19:53:51.498Z,23.20
2022-08-08T19:56:40.049Z,23.10
2022-08-08T19:59:15.133Z,23.10
2022-08-08T20:02:03.490Z,23.00
2022-08-08T20:04:36.583Z,23.00
2022-08-08T20:08:28.064Z,22.90
2022-08-08T20:10:02.860Z,23.20
2022-08-08T20:12:36.929Z,22.80
2022-08-08T20:15:16.729Z,22.80
2022-08-08T20:17:49.117Z,22.60
2022-08-08T20:20:22.226Z,22.60
2022-08-08T20:22:56.291Z,22.60
2022-08-08T20:25:29.827Z,22.50
2022-08-08T20:28:07.573Z,22.40
2022-08-08T20:30:56.036Z,22.30
2022-08-08T20:33:28.471Z,22.10
2022-08-08T20:36:22.206Z,22.00
2022-08-08T20:38:54.239Z,22.00
2022-08-08T20:41:27.202Z,21.90
2022-08-08T20:44:01.014Z,21.90
2022-08-08T20:46:33.254Z,21.80
2022-08-08T20:49:05.737Z,21.80
2022-08-08T20:51:37.484Z,21.70
2022-08-08T20:54:14.326Z,21.70
2022-08-08T20:57:16.113Z,21.60
2022-08-08T20:59:42.905Z,21.50
2022-08-08T21:02:19.843Z,21.50
2022-08-08T21:05:01.111Z,21.40
2022-08-08T21:08:33.652Z,21.40
2022-08-08T21:10:28.222Z,21.30
2022-08-08T21:13:00.201Z,21.30
2022-08-08T21:16:17.845Z,21.10
2022-08-08T21:18:24.792Z,21.00
2022-08-08T21:20:59.841Z,20.90
2022-08-08T21:24:02.569Z,20.90
2022-08-08T21:26:27.376Z,20.80
2022-08-08T21:29:00.828Z,20.80
2022-08-08T21:31:57.586Z,20.80
2022-08-08T21:34:29.830Z,20.70
2022-08-08T21:37:11.091Z,20.70
2022-08-08T21:39:57.109Z,20.70
2022-08-08T21:42:29.169Z,20.70
2022-08-08T21:45:44.331Z,20.60
2022-08-08T21:48:05.919Z,20.60
2022-08-08T21:50:45.950Z,20.50
2022-08-08T21:54:33.386Z,20.50
2022-08-08T21:56:19.397Z,20.40
2022-08-08T21:59:04.094Z,20.40
2022-08-08T22:01:42.460Z,20.30
2022-08-08T22:04:14.790Z,20.30
2022-08-08T22:06:47.229Z,20.30
2022-08-08T22:09:19.528Z,20.20
2022-08-08T22:12:03.030Z,20.20
2022-08-08T22:14:42.780Z,20.10
2022-08-08T22:17:17.126Z,20.10
2022-08-08T22:20:11.317Z,20.10
2022-08-08T22:22:41.416Z,20.10
2022-08-08T22:25:25.449Z,20.00
2022-08-08T22:28:04.078Z,19.90
2022-08-08T22:30:53.080Z,19.80
2022-08-08T22:34:13.298Z,19.90
2022-08-08T22:36:20.022Z,19.80
2022-08-08T22:39:06.624Z,19.80
2022-08-08T22:41:39.259Z,19.80
2022-08-08T22:44:11.116Z,19.70
2022-08-08T22:46:42.861Z,19.70
2022-08-08T22:49:20.052Z,19.60
2022-08-08T22:51:52.228Z,19.70
2022-08-08T22:54:31.524Z,19.60
2022-08-08T22:57:18.430Z,19.60
2022-08-08T22:59:59.372Z,19.60
2022-08-08T23:02:31.749Z,19.60
2022-08-08T23:05:07.630Z,19.60
2022-08-08T23:07:57.252Z,19.50
2022-08-08T23:10:30.019Z,19.50
2022-08-08T23:13:01.795Z,19.50
2022-08-08T23:16:38.103Z,19.40
2022-08-08T23:18:28.809Z,19.40
2022-08-08T23:21:04.547Z,19.30
2022-08-08T23:23:48.625Z,19.30
2022-08-08T23:26:28.713Z,19.30
2022-08-08T23:29:00.994Z,19.30
2022-08-08T23:31:36.604Z,19.30
2022-08-08T23:34:16.611Z,19.20
2022-08-08T23:36:56.885Z,19.20
2022-08-08T23:39:42.202Z,19.10
2022-08-08T23:42:21.603Z,19.00
2022-08-08T23:44:53.395Z,18.90
2022-08-08T23:49:06.160Z,18.90
2022-08-08T23:50:30.786Z,18.90
2022-08-08T23:53:05.358Z,18.80
2022-08-08T23:55:38.404Z,18.70
2022-08-08T23:58:37.153Z,18.70
